Time;durP1;ratioP1;P1;durP2;ratioP2;P2;SDS_P1;SDS_P2;PMS_P1;PMS_P2;Temp;Humidity;BMP_temperature;BMP_pressure;BME280_temperature;BME280_humidity;BME280_pressure;Samples;Min_cycle;Max_cycle;Signal;HPM_P1;HPM_P2
2021/03/02 00:01:55;;;;;;;15.10;9.23;;;4.80;48.50;;;;;;5028131;28;20689;-80
2021/03/02 00:04:23;;;;;;;13.68;8.75;;;4.70;48.90;;;;;;5022898;28;20211;-79
2021/03/02 00:06:56;;;;;;;15.38;9.85;;;4.90;48.90;;;;;;5023087;28;20224;-80
2021/03/02 00:09:24;;;;;;;15.40;9.77;;;5.00;48.50;;;;;;5025198;28;20230;-80
2021/03/02 00:11:57;;;;;;;14.77;9.10;;;5.20;47.50;;;;;;5029169;28;20204;-80
2021/03/02 00:14:26;;;;;;;16.25;9.65;;;5.30;46.10;;;;;;5019854;28;20179;-81
2021/03/02 00:17:06;;;;;;;13.63;8.68;;;5.40;46.20;;;;;;5037087;28;20234;-80
2021/03/02 00:19:46;;;;;;;13.82;8.50;;;5.30;46.10;;;;;;5040714;28;20203;-80
2021/03/02 00:22:27;;;;;;;16.15;9.63;;;5.20;46.80;;;;;;5017443;28;20210;-80
2021/03/02 00:25:20;;;;;;;11.02;8.82;;;5.20;47.30;;;;;;5040150;28;20211;-81
2021/03/02 00:27:54;;;;;;;13.13;9.20;;;5.20;46.90;;;;;;5039051;28;20239;-80
2021/03/02 00:30:28;;;;;;;14.48;9.30;;;5.00;47.50;;;;;;5028878;28;20223;-79
2021/03/02 00:33:01;;;;;;;15.32;9.23;;;5.10;47.90;;;;;;5013385;28;20271;-80
2021/03/02 00:38:23;;;;;;;16.73;9.50;;;5.00;48.00;;;;;;5031178;28;20211;-79
2021/03/02 00:41:19;;;;;;;13.77;9.80;;;4.90;48.40;;;;;;5032343;28;20208;-80
2021/03/02 00:43:58;;;;;;;14.05;8.52;;;4.90;48.40;;;;;;5032975;28;20215;-80
2021/03/02 00:46:33;;;;;;;13.18;8.75;;;4.80;48.90;;;;;;5034974;28;20242;-79
2021/03/02 00:49:08;;;;;;;12.63;8.85;;;4.70;49.50;;;;;;5039574;28;20235;-80
2021/03/02 00:51:39;;;;;;;17.63;9.52;;;4.60;49.80;;;;;;5040133;28;20184;-80
2021/03/02 00:54:13;;;;;;;11.82;8.45;;;4.50;50.20;;;;;;5033511;28;20211;-80
2021/03/02 00:56:45;;;;;;;12.95;8.50;;;4.40;50.60;;;;;;5031235;28;20231;-80
2021/03/02 00:59:24;;;;;;;15.40;8.52;;;4.50;51.10;;;;;;5029202;28;20251;-81
2021/03/02 01:02:08;;;;;;;11.38;8.13;;;4.80;50.50;;;;;;5037224;28;20195;-81
2021/03/02 01:04:38;;;;;;;13.35;9.10;;;4.80;50.20;;;;;;5039797;28;20188;-80
2021/03/02 01:07:11;;;;;;;14.75;9.18;;;4.80;50.10;;;;;;5023019;28;20234;-81
2021/03/02 01:09:58;;;;;;;12.40;8.63;;;4.70;50.20;;;;;;5039883;28;20480;-80
2021/03/02 01:15:23;;;;;;;16.52;8.75;;;4.40;50.80;;;;;;5018429;28;20176;-80
2021/03/02 01:17:51;;;;;;;13.65;8.73;;;4.30;51.50;;;;;;5019192;28;20212;-78
2021/03/02 01:20:18;;;;;;;11.27;7.72;;;4.20;51.90;;;;;;5019207;28;20224;-80
2021/03/02 01:22:44;;;;;;;14.65;8.90;;;4.20;52.70;;;;;;5014524;28;20235;-79
2021/03/02 01:25:12;;;;;;;12.10;8.05;;;4.30;52.50;;;;;;5013280;28;20218;-80
2021/03/02 01:27:50;;;;;;;12.90;8.70;;;4.30;52.40;;;;;;5040300;23;20250;-80
2021/03/02 01:30:20;;;;;;;15.13;9.38;;;4.30;52.50;;;;;;5029853;28;20212;-79
2021/03/02 01:32:50;;;;;;;11.98;8.20;;;4.20;52.80;;;;;;5029844;28;20206;-80
2021/03/02 01:35:41;;;;;;;12.70;8.10;;;4.10;53.50;;;;;;5013472;28;20280;-81
2021/03/02 01:38:28;;;;;;;14.40;8.55;;;4.20;53.80;;;;;;5011652;28;20212;-81
2021/03/02 01:41:00;;;;;;;14.65;8.05;;;4.20;53.50;;;;;;5011189;28;20201;-81
2021/03/02 01:43:35;;;;;;;12.82;8.70;;;4.10;54.00;;;;;;5010175;28;20216;-80
2021/03/02 01:46:08;;;;;;;14.13;9.07;;;4.10;54.50;;;;;;5012753;28;20228;-81
2021/03/02 01:48:42;;;;;;;15.13;8.75;;;4.00;54.50;;;;;;5008228;28;20235;-80
2021/03/02 01:51:13;;;;;;;11.45;7.50;;;4.10;54.50;;;;;;5008407;28;20283;-80
2021/03/02 01:53:42;;;;;;;13.18;7.63;;;4.20;54.70;;;;;;5005287;28;20276;-80
2021/03/02 01:56:09;;;;;;;13.32;7.53;;;4.20;54.50;;;;;;5002993;28;20220;-80
2021/03/02 01:58:41;;;;;;;12.30;8.00;;;4.20;54.60;;;;;;5005910;28;20220;-80
2021/03/02 02:01:10;;;;;;;11.50;7.93;;;4.10;54.40;;;;;;5006252;28;20212;-78
2021/03/02 02:03:46;;;;;;;14.82;8.73;;;4.00;54.50;;;;;;5004946;28;20212;-79
2021/03/02 02:06:23;;;;;;;13.65;8.00;;;3.90;54.40;;;;;;5010124;28;20216;-80
2021/03/02 02:09:10;;;;;;;11.50;6.80;;;3.80;54.80;;;;;;5013014;28;20267;-79
2021/03/02 02:11:48;;;;;;;11.80;7.28;;;3.80;55.70;;;;;;5018470;28;20179;-80
2021/03/02 02:14:23;;;;;;;15.27;7.55;;;3.80;56.00;;;;;;5402660;23;20235;-80
2021/03/02 02:16:55;;;;;;;11.23;7.90;;;3.80;56.20;;;;;;5032651;28;20228;-79
2021/03/02 02:19:35;;;;;;;12.85;8.05;;;3.70;56.30;;;;;;5026372;28;20215;-80
2021/03/02 02:22:25;;;;;;;12.95;7.78;;;3.70;56.90;;;;;;5036150;28;20203;-80
2021/03/02 02:25:15;;;;;;;12.75;7.82;;;3.70;57.20;;;;;;5035964;28;20184;-80
2021/03/02 02:27:58;;;;;;;14.02;7.93;;;3.70;57.10;;;;;;5038398;28;20223;-81
2021/03/02 02:30:26;;;;;;;12.30;7.45;;;3.50;57.20;;;;;;5033729;28;20215;-81
2021/03/02 02:32:57;;;;;;;12.70;7.32;;;3.50;57.90;;;;;;5027324;28;20216;-79
2021/03/02 02:35:28;;;;;;;11.90;8.02;;;3.40;58.20;;;;;;5023159;28;20231;-79
2021/03/02 02:37:57;;;;;;;14.73;7.68;;;3.40;58.50;;;;;;5021767;28;20258;-80
2021/03/02 02:43:14;;;;;;;12.60;8.75;;;3.30;58.60;;;;;;5023490;28;20235;-80
2021/03/02 02:45:47;;;;;;;10.95;8.00;;;3.10;59.80;;;;;;5024778;28;20211;-80
2021/03/02 02:48:18;;;;;;;16.83;9.65;;;3.10;60.60;;;;;;5022840;28;20279;-79
2021/03/02 02:50:52;;;;;;;13.88;9.15;;;3.00;61.60;;;;;;5022164;28;20216;-80
2021/03/02 02:53:21;;;;;;;13.55;9.23;;;2.90;62.50;;;;;;5022174;28;20215;-79
2021/03/02 02:56:00;;;;;;;14.30;9.15;;;2.90;62.50;;;;;;5020891;28;20214;-80
2021/03/02 02:58:41;;;;;;;12.35;8.70;;;2.90;62.60;;;;;;5019985;28;20234;-81
2021/03/02 03:01:13;;;;;;;13.93;8.48;;;3.00;62.60;;;;;;5021047;28;20212;-80
2021/03/02 03:03:45;;;;;;;12.07;8.10;;;3.00;62.70;;;;;;5020639;28;20212;-79
2021/03/02 03:06:22;;;;;;;14.40;7.90;;;3.00;62.60;;;;;;5020237;28;20315;-80
2021/03/02 03:08:53;;;;;;;13.30;8.23;;;2.90;62.50;;;;;;5004700;28;20203;-80
2021/03/02 03:11:26;;;;;;;12.88;8.60;;;2.90;62.60;;;;;;5030545;28;20254;-79
2021/03/02 03:14:02;;;;;;;15.10;8.77;;;2.90;62.60;;;;;;5030681;28;20295;-80
2021/03/02 03:16:40;;;;;;;12.35;9.10;;;2.90;63.50;;;;;;5035036;28;20630;-79
2021/03/02 03:19:13;;;;;;;10.85;7.80;;;2.80;63.40;;;;;;5038004;28;20215;-79
2021/03/02 03:21:44;;;;;;;13.68;8.07;;;2.80;64.00;;;;;;5039675;28;20272;-80
2021/03/02 03:24:17;;;;;;;16.67;8.27;;;2.80;64.10;;;;;;5024245;28;20235;-80
2021/03/02 03:26:47;;;;;;;12.48;8.13;;;2.70;63.80;;;;;;5039034;28;20250;-80
2021/03/02 03:29:21;;;;;;;14.20;8.15;;;2.70;64.00;;;;;;5039557;28;20176;-81
2021/03/02 03:31:56;;;;;;;13.18;9.15;;;2.60;65.10;;;;;;5040889;28;20247;-80
2021/03/02 03:34:32;;;;;;;13.55;8.23;;;2.50;65.80;;;;;;5038778;28;20188;-80
2021/03/02 03:37:03;;;;;;;13.18;8.05;;;2.50;66.10;;;;;;5037569;28;20235;-79
2021/03/02 03:42:17;;;;;;;14.02;8.43;;;2.50;66.60;;;;;;5037888;28;20219;-80
2021/03/02 03:44:51;;;;;;;14.07;8.60;;;2.50;66.60;;;;;;5027481;28;20199;-81
2021/03/02 03:47:20;;;;;;;12.20;8.57;;;2.40;66.80;;;;;;5008960;28;20224;-80
2021/03/02 03:49:49;;;;;;;14.73;9.15;;;2.40;67.00;;;;;;5023636;28;20227;-80
2021/03/02 03:52:19;;;;;;;14.63;8.80;;;2.40;67.50;;;;;;5033107;28;20257;-79
2021/03/02 03:54:55;;;;;;;17.50;9.13;;;2.30;67.30;;;;;;5038567;28;20214;-79
2021/03/02 03:57:26;;;;;;;14.68;9.40;;;2.20;67.70;;;;;;5039787;28;20222;-79
2021/03/02 04:00:01;;;;;;;14.52;8.90;;;2.20;68.80;;;;;;5039769;28;20203;-79
2021/03/02 04:02:30;;;;;;;14.50;8.90;;;2.10;69.80;;;;;;5041029;28;20179;-81
2021/03/02 04:05:00;;;;;;;14.90;8.13;;;2.10;70.60;;;;;;5040105;28;20200;-80
2021/03/02 04:07:34;;;;;;;15.45;8.57;;;2.10;70.50;;;;;;5038083;28;20220;-80
2021/03/02 04:10:07;;;;;;;11.50;8.05;;;2.00;70.50;;;;;;5031900;28;20213;-81
2021/03/02 04:12:39;;;;;;;12.82;7.82;;;2.00;71.00;;;;;;5032675;28;20211;-80
2021/03/02 04:15:12;;;;;;;14.95;9.07;;;2.00;71.60;;;;;;5033706;28;20212;-81
2021/03/02 04:17:40;;;;;;;12.20;8.32;;;2.10;72.10;;;;;;5030109;28;20255;-80
2021/03/02 04:20:10;;;;;;;14.27;8.75;;;2.10;72.00;;;;;;5029001;28;20220;-80
2021/03/02 04:22:40;;;;;;;13.45;7.72;;;2.00;72.00;;;;;;5021117;28;20204;-80
2021/03/02 04:25:10;;;;;;;13.15;8.55;;;2.00;72.20;;;;;;5030468;28;20203;-79
2021/03/02 04:27:37;;;;;;;13.05;8.40;;;2.10;72.60;;;;;;5028943;28;20224;-79
2021/03/02 04:30:10;;;;;;;13.95;8.68;;;2.00;72.90;;;;;;5011790;28;20218;-81
2021/03/02 04:32:43;;;;;;;20.05;8.57;;;1.90;72.40;;;;;;5026413;28;20211;-81
2021/03/02 04:35:25;;;;;;;13.07;8.07;;;1.90;73.00;;;;;;5024650;28;20219;-81
2021/03/02 04:37:58;;;;;;;13.85;8.90;;;1.90;73.10;;;;;;5027116;28;20706;-81
2021/03/02 04:40:25;;;;;;;12.43;8.60;;;1.80;73.00;;;;;;5038453;28;20196;-80
2021/03/02 04:42:52;;;;;;;14.05;8.45;;;1.80;73.30;;;;;;5036712;28;20200;-81
2021/03/02 04:45:18;;;;;;;14.40;8.57;;;1.80;72.80;;;;;;5024273;28;20673;-81
2021/03/02 04:47:47;;;;;;;12.38;8.25;;;1.80;73.30;;;;;;5019266;28;20314;-81
2021/03/02 04:50:16;;;;;;;13.70;9.10;;;1.80;73.40;;;;;;5021309;28;20656;-80
2021/03/02 04:52:43;;;;;;;17.08;10.23;;;1.80;73.30;;;;;;5023153;28;20292;-80
2021/03/02 04:55:11;;;;;;;13.98;8.80;;;1.80;73.60;;;;;;5025214;28;20268;-80
2021/03/02 04:57:38;;;;;;;12.77;8.80;;;1.80;73.90;;;;;;5025402;28;20224;-79
2021/03/02 05:00:07;;;;;;;15.63;9.07;;;1.80;73.60;;;;;;5029762;28;20212;-80
2021/03/02 05:02:33;;;;;;;18.90;9.10;;;1.70;73.70;;;;;;5030063;28;20235;-80
2021/03/02 05:05:00;;;;;;;17.23;9.77;;;1.70;74.10;;;;;;5030438;28;20247;-79
2021/03/02 05:07:27;;;;;;;15.48;8.80;;;1.70;74.70;;;;;;5022519;28;20224;-79
2021/03/02 05:09:53;;;;;;;14.10;9.30;;;1.60;74.10;;;;;;5025096;28;20215;-80
2021/03/02 05:12:20;;;;;;;14.55;9.77;;;1.50;74.30;;;;;;5023901;28;20207;-80
2021/03/02 05:14:46;;;;;;;15.35;8.85;;;1.50;74.30;;;;;;5017515;28;20687;-80
2021/03/02 05:17:13;;;;;;;14.77;9.18;;;1.50;74.50;;;;;;5019310;28;20259;-80
2021/03/02 05:19:39;;;;;;;14.02;8.60;;;1.40;74.70;;;;;;5017581;28;20693;-78
2021/03/02 05:22:07;;;;;;;13.43;9.40;;;1.50;75.20;;;;;;5016904;28;20207;-79
2021/03/02 05:24:34;;;;;;;15.05;9.23;;;1.50;75.30;;;;;;5017111;28;20298;-79
2021/03/02 05:27:01;;;;;;;12.27;8.40;;;1.40;75.40;;;;;;5018440;28;20284;-80
2021/03/02 05:29:28;;;;;;;14.32;9.10;;;1.40;75.70;;;;;;5019303;28;20283;-80
2021/03/02 05:31:57;;;;;;;15.60;9.15;;;1.30;75.40;;;;;;5018629;28;20219;-81
2021/03/02 05:34:24;;;;;;;15.38;9.57;;;1.30;76.60;;;;;;5020263;28;20203;-80
2021/03/02 05:36:51;;;;;;;16.60;9.70;;;1.20;76.60;;;;;;5018454;28;20238;-81
2021/03/02 05:39:36;;;;;;;16.42;9.20;;;1.20;77.80;;;;;;5038431;28;20272;-80
2021/03/02 06:31:32;;;;;;;18.98;9.88;;;1.30;79.60;;;;;;4995286;28;20224;-80
2021/03/02 06:34:07;;;;;;;15.13;9.30;;;1.30;79.10;;;;;;4990624;28;20241;-81
2021/03/02 06:36:35;;;;;;;13.55;9.07;;;1.40;78.40;;;;;;4996356;28;20788;-80
2021/03/02 06:39:26;;;;;;;13.63;9.73;;;1.40;78.40;;;;;;4997358;28;20265;-80
2021/03/02 06:42:12;;;;;;;14.50;9.02;;;1.40;78.40;;;;;;4984567;28;20209;-79
2021/03/02 06:44:39;;;;;;;19.73;10.82;;;1.40;77.90;;;;;;4980206;28;20581;-79
2021/03/02 06:47:06;;;;;;;19.52;11.13;;;1.40;77.00;;;;;;4991472;28;20225;-79
2021/03/02 06:49:41;;;;;;;19.85;10.30;;;1.50;76.40;;;;;;4992328;28;20430;-80
2021/03/02 06:52:16;;;;;;;19.70;10.27;;;1.50;76.30;;;;;;4989387;28;20243;-79
2021/03/02 06:54:43;;;;;;;17.80;10.13;;;1.50;76.10;;;;;;4990332;28;20216;-80
2021/03/02 06:57:10;;;;;;;19.00;10.80;;;1.60;76.30;;;;;;4993440;28;20261;-80
2021/03/02 06:59:37;;;;;;;19.63;10.00;;;1.60;76.50;;;;;;4995867;28;20224;-79
2021/03/02 07:02:04;;;;;;;14.68;9.40;;;1.70;76.30;;;;;;4995412;28;20454;-80
2021/03/02 07:04:31;;;;;;;22.50;9.80;;;1.80;75.80;;;;;;4990562;28;20237;-79
2021/03/02 07:06:58;;;;;;;18.10;9.68;;;1.90;75.10;;;;;;4987880;28;20243;-79
2021/03/02 07:09:26;;;;;;;17.58;10.32;;;2.00;74.30;;;;;;4986454;28;20260;-78
2021/03/02 07:11:57;;;;;;;19.80;10.27;;;2.10;72.90;;;;;;4985980;28;20212;-79
2021/03/02 07:14:26;;;;;;;20.15;10.40;;;2.10;71.20;;;;;;4990818;28;20241;-79
2021/03/02 07:16:54;;;;;;;23.05;10.50;;;2.10;70.50;;;;;;4990093;28;20229;-79
2021/03/02 07:19:21;;;;;;;21.98;10.70;;;2.20;70.60;;;;;;4984732;28;20693;-79
2021/03/02 07:21:54;;;;;;;19.63;10.05;;;2.20;70.60;;;;;;4980740;28;20220;-79
2021/03/02 07:24:25;;;;;;;20.70;9.43;;;2.30;70.70;;;;;;4988899;28;20229;-80
2021/03/02 07:26:54;;;;;;;19.45;11.30;;;2.40;70.10;;;;;;4983739;28;20395;-79
2021/03/02 07:29:21;;;;;;;14.40;9.15;;;2.50;69.30;;;;;;4989667;28;20228;-79
2021/03/02 07:31:48;;;;;;;15.27;9.48;;;2.60;68.60;;;;;;5006151;28;20527;-78
2021/03/02 07:34:14;;;;;;;19.23;10.13;;;2.70;68.30;;;;;;5013236;28;20299;-80
2021/03/02 07:36:42;;;;;;;18.77;10.10;;;2.70;67.50;;;;;;5006186;28;20235;-80
2021/03/02 07:39:16;;;;;;;17.73;10.40;;;2.80;66.50;;;;;;5000595;28;20215;-80
2021/03/02 07:41:43;;;;;;;18.23;10.38;;;2.90;66.50;;;;;;5000414;28;20208;-78
2021/03/02 07:44:10;;;;;;;20.05;10.25;;;3.00;65.50;;;;;;5000451;28;20204;-80
2021/03/02 07:46:44;;;;;;;16.67;10.32;;;3.10;64.20;;;;;;5000341;28;20229;-80
2021/03/02 07:49:32;;;;;;;19.95;11.30;;;3.20;64.00;;;;;;5000205;28;20207;-82
2021/03/02 07:52:18;;;;;;;21.15;9.88;;;3.40;62.90;;;;;;5000740;28;20212;-80
2021/03/02 07:54:46;;;;;;;18.77;9.57;;;3.50;62.40;;;;;;5002357;28;20208;-80
2021/03/02 07:57:27;;;;;;;15.25;9.13;;;3.70;62.00;;;;;;5005883;28;20252;-80
2021/03/02 08:00:22;;;;;;;13.27;8.93;;;3.80;61.10;;;;;;4999557;28;20208;-80
2021/03/02 08:03:17;;;;;;;14.00;8.70;;;4.00;60.40;;;;;;4999312;28;20259;-81
2021/03/02 08:05:44;;;;;;;17.08;10.00;;;4.10;59.60;;;;;;4999478;28;20684;-81
2021/03/02 08:08:33;;;;;;;11.82;9.05;;;4.30;59.30;;;;;;4999450;28;20340;-80
2021/03/02 08:11:03;;;;;;;20.00;10.48;;;4.40;57.80;;;;;;5009370;28;20260;-81
2021/03/02 08:13:37;;;;;;;15.75;9.90;;;4.40;56.30;;;;;;5005291;28;20276;-81
2021/03/02 08:16:05;;;;;;;19.33;9.70;;;4.30;56.70;;;;;;5000071;28;20234;-80
2021/03/02 08:18:34;;;;;;;17.90;9.40;;;4.50;56.90;;;;;;5000416;28;20225;-80
2021/03/02 08:21:19;;;;;;;16.80;9.10;;;4.60;56.10;;;;;;5000948;28;20211;-80
2021/03/02 08:23:54;;;;;;;16.20;9.75;;;4.80;55.20;;;;;;5000522;28;20220;-80
2021/03/02 08:26:26;;;;;;;14.73;9.18;;;4.80;55.20;;;;;;5003570;28;20223;-79
2021/03/02 08:29:04;;;;;;;14.90;9.57;;;5.00;55.30;;;;;;5009140;28;20252;-81
2021/03/02 08:31:31;;;;;;;14.57;9.80;;;5.20;54.50;;;;;;5011142;28;20213;-79
2021/03/02 08:34:00;;;;;;;16.70;9.27;;;5.20;53.00;;;;;;5010143;28;20213;-79
2021/03/02 08:36:27;;;;;;;16.38;10.23;;;5.30;53.40;;;;;;5009835;28;20264;-81
2021/03/02 08:38:53;;;;;;;15.70;10.70;;;5.50;52.60;;;;;;5005423;28;20239;-80
2021/03/02 08:41:35;;;;;;;17.02;9.90;;;5.60;51.60;;;;;;5008125;28;20816;-79
2021/03/02 08:44:02;;;;;;;20.42;10.32;;;5.70;51.30;;;;;;5008095;28;20272;-78
2021/03/02 08:46:30;;;;;;;14.98;9.25;;;5.80;51.30;;;;;;5008594;28;20235;-78
2021/03/02 08:48:56;;;;;;;13.50;8.80;;;5.90;51.30;;;;;;5004167;28;20688;-81
2021/03/02 08:51:25;;;;;;;15.32;8.68;;;6.00;50.20;;;;;;5008038;28;20223;-79
2021/03/02 08:53:52;;;;;;;12.38;8.57;;;6.10;50.00;;;;;;5011175;28;20244;-80
2021/03/02 08:56:21;;;;;;;14.65;8.88;;;6.10;49.60;;;;;;5010398;28;20259;-80
2021/03/02 08:58:50;;;;;;;13.68;9.00;;;6.20;49.40;;;;;;5011482;28;20247;-79
2021/03/02 09:01:25;;;;;;;13.55;8.95;;;6.40;49.00;;;;;;5013611;28;20200;-79
2021/03/02 09:03:53;;;;;;;13.20;8.73;;;6.60;48.20;;;;;;5008897;28;20211;-80
2021/03/02 09:06:20;;;;;;;11.57;8.50;;;6.60;47.30;;;;;;5013719;28;20234;-79
2021/03/02 09:08:52;;;;;;;13.93;8.98;;;6.80;47.50;;;;;;5010700;28;20208;-79
2021/03/02 09:11:22;;;;;;;17.20;8.45;;;7.00;47.60;;;;;;5011805;28;20272;-78
2021/03/02 09:13:50;;;;;;;14.70;8.98;;;7.00;46.90;;;;;;5010457;28;20208;-79
2021/03/02 09:16:40;;;;;;;14.32;8.63;;;7.00;47.00;;;;;;5003565;28;20225;-78
2021/03/02 09:19:22;;;;;;;18.10;9.40;;;7.10;46.60;;;;;;5007742;28;20240;-80
2021/03/02 09:21:52;;;;;;;11.07;7.85;;;7.20;46.30;;;;;;4992198;28;20209;-80
2021/03/02 09:24:21;;;;;;;15.60;8.63;;;7.40;45.50;;;;;;4988173;28;20350;-81
2021/03/02 09:27:00;;;;;;;12.23;8.57;;;7.40;44.90;;;;;;4984655;28;20288;-79
2021/03/02 09:29:32;;;;;;;11.35;8.85;;;7.50;44.80;;;;;;4988601;28;20216;-79
2021/03/02 09:32:00;;;;;;;12.65;9.10;;;7.70;44.30;;;;;;4993647;28;20212;-80
2021/03/02 09:34:32;;;;;;;12.60;9.30;;;7.80;43.60;;;;;;4995568;28;20678;-80
2021/03/02 09:37:04;;;;;;;15.13;9.95;;;7.90;43.50;;;;;;4998263;28;20213;-80
2021/03/02 09:39:31;;;;;;;14.65;9.80;;;7.80;43.20;;;;;;4996678;28;20208;-79
2021/03/02 09:41:58;;;;;;;15.15;8.75;;;7.90;43.10;;;;;;4997869;28;20197;-79
2021/03/02 09:44:32;;;;;;;15.40;9.43;;;8.00;42.60;;;;;;4999005;28;20230;-79
2021/03/02 09:47:02;;;;;;;14.85;9.50;;;8.10;42.70;;;;;;4997511;28;20219;-79
2021/03/02 09:49:38;;;;;;;14.77;10.05;;;8.30;42.50;;;;;;4996353;28;20560;-80
2021/03/02 09:52:06;;;;;;;15.98;11.07;;;8.40;41.80;;;;;;4994669;28;20725;-79
2021/03/02 09:54:33;;;;;;;13.95;9.95;;;8.50;41.50;;;;;;4986246;28;20242;-80
2021/03/02 09:57:02;;;;;;;17.58;10.55;;;8.60;41.60;;;;;;4985659;28;20229;-79
2021/03/02 09:59:33;;;;;;;18.98;11.80;;;8.80;40.60;;;;;;4987850;28;20216;-81
2021/03/02 10:02:02;;;;;;;17.13;11.43;;;8.90;40.10;;;;;;4988736;28;20219;-80
2021/03/02 10:04:29;;;;;;;25.30;12.38;;;9.00;39.70;;;;;;4989340;28;20265;-79
2021/03/02 10:07:10;;;;;;;17.95;11.60;;;9.20;39.80;;;;;;4985971;28;20233;-78
2021/03/02 10:09:40;;;;;;;17.33;12.00;;;9.30;39.90;;;;;;4986043;28;20197;-78
2021/03/02 10:12:10;;;;;;;17.60;10.95;;;9.40;39.90;;;;;;4984305;28;20219;-78
2021/03/02 10:14:38;;;;;;;20.65;12.13;;;9.50;39.60;;;;;;4987699;28;20213;-80
2021/03/02 10:17:35;;;;;;;16.70;11.80;;;9.40;39.10;;;;;;4987982;28;20229;-82
2021/03/02 10:20:06;;;;;;;19.70;12.25;;;9.40;39.80;;;;;;4979306;28;20209;-81
2021/03/02 10:22:33;;;;;;;20.73;12.82;;;9.40;39.50;;;;;;4987808;28;20559;-80
2021/03/02 10:25:03;;;;;;;18.63;12.77;;;9.40;40.00;;;;;;4986604;28;20287;-80
2021/03/02 10:27:29;;;;;;;17.27;11.23;;;9.60;38.30;;;;;;4980202;28;20227;-80
2021/03/02 10:29:56;;;;;;;17.90;12.55;;;9.70;38.40;;;;;;4981911;28;20213;-80
2021/03/02 10:32:25;;;;;;;16.48;13.00;;;9.70;37.80;;;;;;4988710;28;20213;-79
2021/03/02 10:34:52;;;;;;;21.17;14.07;;;9.80;38.00;;;;;;4992977;28;20286;-78
2021/03/02 10:37:19;;;;;;;20.30;12.13;;;9.90;37.50;;;;;;4991672;28;20233;-79
2021/03/02 10:39:46;;;;;;;19.63;14.25;;;10.00;36.50;;;;;;4992201;28;20232;-78
2021/03/02 10:42:13;;;;;;;16.10;12.43;;;10.10;36.50;;;;;;4994450;28;20261;-78
2021/03/02 10:44:41;;;;;;;17.30;12.20;;;10.20;36.00;;;;;;4990161;28;20213;-80
2021/03/02 10:47:07;;;;;;;20.88;14.00;;;10.30;35.50;;;;;;4991937;28;20243;-78
2021/03/02 10:49:35;;;;;;;20.00;12.82;;;10.30;35.10;;;;;;4993799;28;20213;-78
2021/03/02 10:52:03;;;;;;;18.73;12.13;;;10.40;35.10;;;;;;4994251;28;20267;-80
2021/03/02 10:54:30;;;;;;;15.48;11.55;;;10.50;35.00;;;;;;4991642;28;20205;-80
2021/03/02 10:56:57;;;;;;;17.83;11.63;;;10.60;34.70;;;;;;4987524;28;20225;-79
2021/03/02 10:59:23;;;;;;;19.00;12.18;;;10.80;34.60;;;;;;4986226;28;20232;-80
2021/03/02 11:01:50;;;;;;;18.80;12.68;;;10.90;34.00;;;;;;4986499;28;20264;-81
2021/03/02 11:04:16;;;;;;;19.10;13.48;;;11.10;33.70;;;;;;4989843;28;20580;-79
2021/03/02 11:06:47;;;;;;;18.08;12.55;;;11.20;33.50;;;;;;4991139;28;20229;-79
2021/03/02 11:09:14;;;;;;;20.13;12.75;;;11.40;33.30;;;;;;4990309;28;20190;-80
2021/03/02 11:11:41;;;;;;;16.67;11.98;;;11.40;32.60;;;;;;4990118;28;20201;-81
2021/03/02 11:14:08;;;;;;;16.98;12.65;;;11.40;32.70;;;;;;4984048;28;20213;-79
2021/03/02 11:16:34;;;;;;;17.60;13.68;;;11.40;32.70;;;;;;4978614;28;20301;-81
2021/03/02 11:19:01;;;;;;;18.67;12.82;;;11.40;32.30;;;;;;4977819;28;20233;-79
2021/03/02 11:21:28;;;;;;;16.60;13.07;;;11.30;33.00;;;;;;4980554;28;20217;-80
2021/03/02 11:23:55;;;;;;;18.55;11.90;;;11.40;32.90;;;;;;4977652;28;20216;-80
2021/03/02 11:26:22;;;;;;;20.42;12.77;;;11.60;32.10;;;;;;4977751;28;20320;-79
2021/03/02 11:28:49;;;;;;;22.63;11.80;;;11.50;32.10;;;;;;4979254;28;20256;-81
2021/03/02 11:31:15;;;;;;;15.90;11.75;;;11.70;31.90;;;;;;4978767;28;20234;-79
2021/03/02 11:33:42;;;;;;;17.83;11.70;;;11.80;31.90;;;;;;4980207;28;20313;-80
2021/03/02 11:36:09;;;;;;;22.95;11.98;;;12.00;31.30;;;;;;4980397;28;20297;-80
2021/03/02 11:38:36;;;;;;;20.88;13.57;;;12.10;31.40;;;;;;4985638;28;20253;-81
2021/03/02 11:41:03;;;;;;;18.58;13.23;;;12.10;31.40;;;;;;4988625;28;20207;-79
2021/03/02 11:43:31;;;;;;;18.95;11.93;;;12.10;31.40;;;;;;4983015;28;20270;-80
2021/03/02 11:45:58;;;;;;;15.70;12.10;;;12.10;31.40;;;;;;4982197;28;20216;-78
2021/03/02 11:48:26;;;;;;;18.35;12.38;;;12.20;31.50;;;;;;4981759;28;20212;-80
2021/03/02 11:50:52;;;;;;;16.42;12.73;;;12.20;31.50;;;;;;4985111;28;20729;-80
2021/03/02 11:53:19;;;;;;;15.45;11.85;;;12.00;31.30;;;;;;4988130;28;20229;-79
2021/03/02 11:55:46;;;;;;;18.85;12.23;;;12.00;31.30;;;;;;4991939;28;20254;-80
2021/03/02 11:58:15;;;;;;;20.77;12.48;;;12.00;31.30;;;;;;4982118;28;20229;-79
2021/03/02 12:00:41;;;;;;;18.05;13.20;;;12.00;31.30;;;;;;4982546;28;20636;-81
2021/03/02 12:03:08;;;;;;;16.25;12.70;;;12.20;31.50;;;;;;4990167;28;20621;-80
2021/03/02 12:05:35;;;;;;;17.92;11.80;;;12.30;31.60;;;;;;5002784;28;20251;-81
2021/03/02 12:08:03;;;;;;;19.55;11.93;;;12.40;31.70;;;;;;5001586;28;20245;-79
2021/03/02 12:10:29;;;;;;;14.88;10.85;;;12.50;31.80;;;;;;5001272;28;20215;-80
2021/03/02 12:12:56;;;;;;;17.95;13.18;;;12.70;31.40;;;;;;5001869;28;20232;-80
2021/03/02 12:15:26;;;;;;;15.93;11.10;;;12.90;31.00;;;;;;5008299;28;20212;-80
2021/03/02 12:17:53;;;;;;;16.38;12.18;;;13.00;30.30;;;;;;5003355;28;20248;-80
2021/03/02 12:20:19;;;;;;;17.60;11.85;;;13.20;29.90;;;;;;5013208;28;20209;-80
2021/03/02 12:27:57;;;;;;;15.48;11.68;;;13.40;29.80;;;;;;5133098;23;20475;-80
2021/03/02 12:30:24;;;;;;;18.77;12.50;;;13.10;29.90;;;;;;5021307;28;20212;-80
2021/03/02 12:32:52;;;;;;;20.45;11.85;;;13.00;30.40;;;;;;5020557;28;20295;-81
2021/03/02 12:35:18;;;;;;;18.45;11.20;;;13.20;29.80;;;;;;5026849;28;20196;-80
2021/03/02 12:37:45;;;;;;;18.55;12.35;;;13.30;29.60;;;;;;5024250;28;20234;-80
2021/03/02 12:40:12;;;;;;;15.93;12.18;;;13.40;29.40;;;;;;5025108;28;20212;-83
2021/03/02 12:42:39;;;;;;;16.90;12.35;;;13.60;29.20;;;;;;5036520;28;20222;-85
2021/03/02 12:45:06;;;;;;;17.15;11.95;;;13.80;28.80;;;;;;5028309;28;20479;-81
2021/03/02 12:47:33;;;;;;;15.27;11.50;;;13.70;28.80;;;;;;5033549;28;20227;-82
2021/03/02 12:50:02;;;;;;;18.50;12.52;;;13.80;28.50;;;;;;5036926;28;20184;-79
2021/03/02 12:52:28;;;;;;;16.05;10.88;;;13.90;28.70;;;;;;5032012;28;20215;-82
2021/03/02 12:54:55;;;;;;;16.92;11.45;;;13.90;28.70;;;;;;5024056;28;20228;-85
2021/03/02 12:57:22;;;;;;;15.48;12.13;;;14.00;28.60;;;;;;5022733;28;20228;-81
2021/03/02 12:59:49;;;;;;;16.00;11.45;;;14.10;28.20;;;;;;5032279;28;20222;-85
2021/03/02 13:02:16;;;;;;;17.05;12.50;;;14.20;28.10;;;;;;5038850;28;20223;-81
2021/03/02 13:04:43;;;;;;;18.85;12.25;;;14.30;28.00;;;;;;5037538;28;20200;-85
2021/03/02 13:07:12;;;;;;;16.13;11.32;;;14.40;28.10;;;;;;5038622;28;20212;-84
2021/03/02 13:09:39;;;;;;;15.57;11.85;;;14.50;27.80;;;;;;5037904;28;20191;-85
2021/03/02 13:12:06;;;;;;;19.08;11.52;;;14.60;28.40;;;;;;5036994;28;20219;-84
2021/03/02 13:14:35;;;;;;;18.60;13.23;;;14.30;27.60;;;;;;5037297;28;20227;-82
2021/03/02 13:17:02;;;;;;;17.73;13.83;;;14.10;28.80;;;;;;5036760;28;20446;-82
2021/03/02 13:19:29;;;;;;;16.70;11.30;;;14.30;28.50;;;;;;5035572;28;20484;-82
2021/03/02 13:21:55;;;;;;;19.73;13.65;;;14.50;27.90;;;;;;5033599;28;20204;-83
2021/03/02 13:24:23;;;;;;;16.75;11.30;;;14.50;27.60;;;;;;5034231;28;20272;-83
2021/03/02 13:26:52;;;;;;;18.05;11.80;;;14.50;27.70;;;;;;5042913;28;20246;-81
2021/03/02 13:29:20;;;;;;;12.77;9.90;;;14.40;28.00;;;;;;5056106;28;20218;-86
2021/03/02 13:31:49;;;;;;;18.33;11.50;;;14.20;28.10;;;;;;5052501;28;20218;-82
2021/03/02 13:34:17;;;;;;;17.38;11.73;;;14.40;28.20;;;;;;5047821;28;20221;-84
2021/03/02 13:36:45;;;;;;;16.27;11.07;;;14.50;27.70;;;;;;5052826;28;20238;-83
2021/03/02 13:39:16;;;;;;;15.93;11.93;;;14.40;27.40;;;;;;5052791;28;20215;-83
2021/03/02 13:41:45;;;;;;;15.20;10.85;;;14.50;27.50;;;;;;5051864;28;20207;-83
2021/03/02 13:44:15;;;;;;;15.10;11.30;;;14.60;27.20;;;;;;5051221;28;20223;-81
2021/03/02 13:46:43;;;;;;;15.02;10.93;;;14.60;27.40;;;;;;5050625;28;20235;-81
2021/03/02 13:49:10;;;;;;;14.65;10.90;;;14.80;27.30;;;;;;5050549;28;20288;-82
2021/03/02 13:51:37;;;;;;;20.23;11.53;;;14.70;26.40;;;;;;5049515;28;20726;-83
2021/03/02 13:54:04;;;;;;;14.32;10.55;;;14.80;26.40;;;;;;5047822;28;20458;-81
2021/03/02 13:56:30;;;;;;;15.93;11.95;;;14.60;26.10;;;;;;5045476;28;20226;-83
2021/03/02 13:58:58;;;;;;;16.98;11.38;;;14.60;26.00;;;;;;5052676;28;20230;-80
2021/03/02 14:01:25;;;;;;;19.83;11.88;;;14.60;26.20;;;;;;5049095;28;20210;-79
2021/03/02 14:03:52;;;;;;;19.35;11.40;;;14.60;26.30;;;;;;5052293;28;20226;-82
2021/03/02 14:06:20;;;;;;;16.65;10.85;;;14.70;25.70;;;;;;5055701;28;20226;-81